sensor_id;sensor_type;location;lat;lon;timestamp;temperature;humidity
2523;DHT22;1272;53.332;9.860;2023-04-28T00:01:09;4.30;99.90
2523;DHT22;1272;53.332;9.860;2023-04-28T00:03:35;4.20;99.90
2523;DHT22;1272;53.332;9.860;2023-04-28T00:06:01;4.20;99.90
2523;DHT22;1272;53.332;9.860;2023-04-28T00:08:28;4.20;15.50
2523;DHT22;1272;53.332;9.860;2023-04-28T00:10:54;4.10;99.90
2523;DHT22;1272;53.332;9.860;2023-04-28T00:13:20;4.00;99.90
2523;DHT22;1272;53.332;9.860;2023-04-28T00:15:45;4.00;99.90
2523;DHT22;1272;53.332;9.860;2023-04-28T00:18:11;4.00;99.90
2523;DHT22;1272;53.332;9.860;2023-04-28T00:20:37;4.00;99.90
2523;DHT22;1272;53.332;9.860;2023-04-28T00:23:02;3.90;99.90
2523;DHT22;1272;53.332;9.860;2023-04-28T00:25:28;3.90;99.90
2523;DHT22;1272;53.332;9.860;2023-04-28T00:27:54;3.80;99.90
2523;DHT22;1272;53.332;9.860;2023-04-28T00:30:20;3.80;99.90
2523;DHT22;1272;53.332;9.860;2023-04-28T00:32:45;3.80;99.90
2523;DHT22;1272;53.332;9.860;2023-04-28T00:35:11;3.70;99.90
2523;DHT22;1272;53.332;9.860;2023-04-28T00:37:37;3.70;99.90
2523;DHT22;1272;53.332;9.860;2023-04-28T00:40:06;3.70;99.90
2523;DHT22;1272;53.332;9.860;2023-04-28T00:42:32;3.70;99.90
2523;DHT22;1272;53.332;9.860;2023-04-28T00:44:58;3.60;99.90
2523;DHT22;1272;53.332;9.860;2023-04-28T00:47:33;3.60;99.90
2523;DHT22;1272;53.332;9.860;2023-04-28T00:50:00;3.70;99.90
2523;DHT22;1272;53.332;9.860;2023-04-28T00:52:26;3.60;99.90
2523;DHT22;1272;53.332;9.860;2023-04-28T00:54:53;3.50;99.90
2523;DHT22;1272;53.332;9.860;2023-04-28T00:57:19;3.50;99.90
2523;DHT22;1272;53.332;9.860;2023-04-28T00:59:45;3.50;99.90
2523;DHT22;1272;53.332;9.860;2023-04-28T01:02:11;3.40;99.90
2523;DHT22;1272;53.332;9.860;2023-04-28T01:04:46;3.40;99.90
2523;DHT22;1272;53.332;9.860;2023-04-28T01:07:11;3.40;99.90
2523;DHT22;1272;53.332;9.860;2023-04-28T01:09:37;3.30;99.90
2523;DHT22;1272;53.332;9.860;2023-04-28T01:12:03;3.30;99.90
2523;DHT22;1272;53.332;9.860;2023-04-28T01:14:29;3.30;99.90
2523;DHT22;1272;53.332;9.860;2023-04-28T01:16:55;3.30;99.90
2523;DHT22;1272;53.332;9.860;2023-04-28T01:19:21;3.30;1.00
2523;DHT22;1272;53.332;9.860;2023-04-28T01:21:48;3.20;1.00
2523;DHT22;1272;53.332;9.860;2023-04-28T01:24:14;3.20;1.00
2523;DHT22;1272;53.332;9.860;2023-04-28T01:26:40;3.10;1.00
2523;DHT22;1272;53.332;9.860;2023-04-28T01:29:05;3.20;1.00
2523;DHT22;1272;53.332;9.860;2023-04-28T01:31:31;3.10;1.00
2523;DHT22;1272;53.332;9.860;2023-04-28T01:33:57;3.10;1.00
2523;DHT22;1272;53.332;9.860;2023-04-28T01:36:23;3.00;1.00
2523;DHT22;1272;53.332;9.860;2023-04-28T01:38:49;3.00;1.00
2523;DHT22;1272;53.332;9.860;2023-04-28T01:41:15;3.00;1.00
2523;DHT22;1272;53.332;9.860;2023-04-28T01:43:41;2.90;1.00
2523;DHT22;1272;53.332;9.860;2023-04-28T01:46:11;2.90;1.00
2523;DHT22;1272;53.332;9.860;2023-04-28T01:48:37;2.90;1.00
2523;DHT22;1272;53.332;9.860;2023-04-28T01:51:03;2.80;1.00
2523;DHT22;1272;53.332;9.860;2023-04-28T01:53:29;2.80;1.00
2523;DHT22;1272;53.332;9.860;2023-04-28T01:55:55;2.70;1.00
2523;DHT22;1272;53.332;9.860;2023-04-28T01:58:25;2.70;1.00
2523;DHT22;1272;53.332;9.860;2023-04-28T02:00:51;2.70;1.00
2523;DHT22;1272;53.332;9.860;2023-04-28T02:03:17;2.60;1.00
2523;DHT22;1272;53.332;9.860;2023-04-28T02:05:42;2.60;1.00
2523;DHT22;1272;53.332;9.860;2023-04-28T02:08:08;2.60;1.00
2523;DHT22;1272;53.332;9.860;2023-04-28T02:10:34;2.60;1.00
2523;DHT22;1272;53.332;9.860;2023-04-28T02:12:59;2.60;1.00
2523;DHT22;1272;53.332;9.860;2023-04-28T02:15:25;2.60;1.00
2523;DHT22;1272;53.332;9.860;2023-04-28T02:17:50;2.50;1.00
2523;DHT22;1272;53.332;9.860;2023-04-28T02:20:16;2.50;1.00
2523;DHT22;1272;53.332;9.860;2023-04-28T02:22:42;2.40;1.00
2523;DHT22;1272;53.332;9.860;2023-04-28T02:25:08;2.40;1.00
2523;DHT22;1272;53.332;9.860;2023-04-28T02:27:34;2.40;1.00
2523;DHT22;1272;53.332;9.860;2023-04-28T02:30:06;2.40;1.00
2523;DHT22;1272;53.332;9.860;2023-04-28T02:32:32;2.30;1.00
2523;DHT22;1272;53.332;9.860;2023-04-28T02:34:58;2.30;1.00
2523;DHT22;1272;53.332;9.860;2023-04-28T02:37:24;2.30;1.00
2523;DHT22;1272;53.332;9.860;2023-04-28T02:39:49;2.20;1.00
2523;DHT22;1272;53.332;9.860;2023-04-28T02:42:15;2.30;8.40
2523;DHT22;1272;53.332;9.860;2023-04-28T02:44:41;2.20;1.00
2523;DHT22;1272;53.332;9.860;2023-04-28T02:47:09;2.20;1.00
2523;DHT22;1272;53.332;9.860;2023-04-28T02:49:34;2.10;15.90
2523;DHT22;1272;53.332;9.860;2023-04-28T02:52:00;2.10;31.50
2523;DHT22;1272;53.332;9.860;2023-04-28T02:54:26;2.10;22.20
2523;DHT22;1272;53.332;9.860;2023-04-28T02:56:56;2.10;32.80
2523;DHT22;1272;53.332;9.860;2023-04-28T02:59:22;2.10;44.60
2523;DHT22;1272;53.332;9.860;2023-04-28T03:01:49;2.10;50.40
2523;DHT22;1272;53.332;9.860;2023-04-28T03:04:16;2.10;50.80
2523;DHT22;1272;53.332;9.860;2023-04-28T03:06:42;2.10;70.30
2523;DHT22;1272;53.332;9.860;2023-04-28T03:09:08;2.00;86.90
2523;DHT22;1272;53.332;9.860;2023-04-28T03:11:34;2.00;96.10
2523;DHT22;1272;53.332;9.860;2023-04-28T03:14:00;2.00;99.90
2523;DHT22;1272;53.332;9.860;2023-04-28T03:16:26;2.00;99.90
2523;DHT22;1272;53.332;9.860;2023-04-28T03:18:51;2.00;99.90
2523;DHT22;1272;53.332;9.860;2023-04-28T03:21:17;2.00;99.90
2523;DHT22;1272;53.332;9.860;2023-04-28T03:23:43;1.90;99.90
2523;DHT22;1272;53.332;9.860;2023-04-28T03:26:08;2.00;99.90
2523;DHT22;1272;53.332;9.860;2023-04-28T03:28:34;1.90;99.90
2523;DHT22;1272;53.332;9.860;2023-04-28T03:31:00;2.00;99.90
2523;DHT22;1272;53.332;9.860;2023-04-28T03:33:27;2.00;99.90
2523;DHT22;1272;53.332;9.860;2023-04-28T03:35:53;2.00;99.90
2523;DHT22;1272;53.332;9.860;2023-04-28T03:38:19;2.00;99.90
2523;DHT22;1272;53.332;9.860;2023-04-28T03:40:45;1.90;99.90
2523;DHT22;1272;53.332;9.860;2023-04-28T03:43:10;1.90;99.90
2523;DHT22;1272;53.332;9.860;2023-04-28T03:45:36;1.90;99.90
2523;DHT22;1272;53.332;9.860;2023-04-28T03:48:02;1.90;99.90
2523;DHT22;1272;53.332;9.860;2023-04-28T03:50:28;2.00;99.90
2523;DHT22;1272;53.332;9.860;2023-04-28T03:52:54;2.00;99.90
2523;DHT22;1272;53.332;9.860;2023-04-28T03:55:20;1.90;99.90
2523;DHT22;1272;53.332;9.860;2023-04-28T03:57:45;2.00;99.90
2523;DHT22;1272;53.332;9.860;2023-04-28T04:00:12;2.00;99.90
2523;DHT22;1272;53.332;9.860;2023-04-28T04:02:38;2.00;99.90
2523;DHT22;1272;53.332;9.860;2023-04-28T04:05:04;2.00;99.90
2523;DHT22;1272;53.332;9.860;2023-04-28T04:07:29;2.00;99.90
2523;DHT22;1272;53.332;9.860;2023-04-28T04:09:55;2.00;99.90
2523;DHT22;1272;53.332;9.860;2023-04-28T04:12:21;2.00;99.90
2523;DHT22;1272;53.332;9.860;2023-04-28T04:14:47;2.00;99.90
2523;DHT22;1272;53.332;9.860;2023-04-28T04:17:12;2.10;99.90
2523;DHT22;1272;53.332;9.860;2023-04-28T04:19:38;2.10;99.90
2523;DHT22;1272;53.332;9.860;2023-04-28T04:22:03;2.10;99.90
2523;DHT22;1272;53.332;9.860;2023-04-28T04:24:29;2.10;99.90
2523;DHT22;1272;53.332;9.860;2023-04-28T04:26:55;2.10;99.90
2523;DHT22;1272;53.332;9.860;2023-04-28T04:29:20;2.20;99.90
2523;DHT22;1272;53.332;9.860;2023-04-28T04:31:46;2.20;99.90
2523;DHT22;1272;53.332;9.860;2023-04-28T04:34:12;2.30;99.90
2523;DHT22;1272;53.332;9.860;2023-04-28T04:36:37;2.30;99.90
2523;DHT22;1272;53.332;9.860;2023-04-28T04:39:03;2.30;99.90
2523;DHT22;1272;53.332;9.860;2023-04-28T04:41:29;2.40;99.90
2523;DHT22;1272;53.332;9.860;2023-04-28T04:43:55;2.40;99.90
2523;DHT22;1272;53.332;9.860;2023-04-28T04:46:21;2.40;99.90
2523;DHT22;1272;53.332;9.860;2023-04-28T04:48:47;2.50;99.90
2523;DHT22;1272;53.332;9.860;2023-04-28T04:51:12;2.50;99.90
2523;DHT22;1272;53.332;9.860;2023-04-28T04:53:38;2.60;99.90
2523;DHT22;1272;53.332;9.860;2023-04-28T04:56:04;2.70;99.90
2523;DHT22;1272;53.332;9.860;2023-04-28T04:58:30;2.80;99.90
2523;DHT22;1272;53.332;9.860;2023-04-28T05:00:55;2.80;99.90
2523;DHT22;1272;53.332;9.860;2023-04-28T05:03:21;2.90;99.90
2523;DHT22;1272;53.332;9.860;2023-04-28T05:05:47;3.00;99.90
2523;DHT22;1272;53.332;9.860;2023-04-28T05:08:13;3.00;99.90
2523;DHT22;1272;53.332;9.860;2023-04-28T05:10:38;3.10;99.90
2523;DHT22;1272;53.332;9.860;2023-04-28T05:13:04;3.10;99.90
2523;DHT22;1272;53.332;9.860;2023-04-28T05:15:30;3.20;99.90
2523;DHT22;1272;53.332;9.860;2023-04-28T05:17:56;3.30;99.90
2523;DHT22;1272;53.332;9.860;2023-04-28T05:20:22;3.40;99.90
2523;DHT22;1272;53.332;9.860;2023-04-28T05:22:48;3.50;99.90
2523;DHT22;1272;53.332;9.860;2023-04-28T05:25:14;3.70;99.90
2523;DHT22;1272;53.332;9.860;2023-04-28T05:27:40;3.80;99.90
2523;DHT22;1272;53.332;9.860;2023-04-28T05:30:07;4.00;99.90
2523;DHT22;1272;53.332;9.860;2023-04-28T05:32:33;4.00;99.70
2523;DHT22;1272;53.332;9.860;2023-04-28T05:34:59;4.10;55.80
2523;DHT22;1272;53.332;9.860;2023-04-28T05:37:25;4.30;1.00
2523;DHT22;1272;53.332;9.860;2023-04-28T05:39:51;4.40;1.00
2523;DHT22;1272;53.332;9.860;2023-04-28T05:42:17;4.50;99.90
2523;DHT22;1272;53.332;9.860;2023-04-28T05:44:45;4.60;99.90
2523;DHT22;1272;53.332;9.860;2023-04-28T05:47:11;4.70;99.90
2523;DHT22;1272;53.332;9.860;2023-04-28T05:49:37;4.70;1.00
2523;DHT22;1272;53.332;9.860;2023-04-28T05:52:03;4.80;99.90
2523;DHT22;1272;53.332;9.860;2023-04-28T05:54:29;4.90;99.90
2523;DHT22;1272;53.332;9.860;2023-04-28T05:56:55;5.00;1.00
2523;DHT22;1272;53.332;9.860;2023-04-28T05:59:22;5.10;1.00
2523;DHT22;1272;53.332;9.860;2023-04-28T06:01:48;5.10;99.90
2523;DHT22;1272;53.332;9.860;2023-04-28T06:04:15;5.30;99.90
2523;DHT22;1272;53.332;9.860;2023-04-28T06:06:41;5.30;36.30
2523;DHT22;1272;53.332;9.860;2023-04-28T06:09:07;5.30;99.90
2523;DHT22;1272;53.332;9.860;2023-04-28T06:11:32;5.40;1.00
2523;DHT22;1272;53.332;9.860;2023-04-28T06:13:58;5.50;1.00
2523;DHT22;1272;53.332;9.860;2023-04-28T06:16:24;5.50;99.90
2523;DHT22;1272;53.332;9.860;2023-04-28T06:18:50;5.60;99.90
2523;DHT22;1272;53.332;9.860;2023-04-28T06:21:16;5.70;99.90
2523;DHT22;1272;53.332;9.860;2023-04-28T06:23:41;5.70;99.90
2523;DHT22;1272;53.332;9.860;2023-04-28T06:26:08;6.00;99.90
2523;DHT22;1272;53.332;9.860;2023-04-28T06:28:33;6.10;1.00
2523;DHT22;1272;53.332;9.860;2023-04-28T06:31:00;6.10;1.00
2523;DHT22;1272;53.332;9.860;2023-04-28T06:33:25;6.20;1.00
2523;DHT22;1272;53.332;9.860;2023-04-28T06:35:52;6.30;99.90
2523;DHT22;1272;53.332;9.860;2023-04-28T06:38:17;6.40;99.90
2523;DHT22;1272;53.332;9.860;2023-04-28T06:40:43;6.50;99.90
2523;DHT22;1272;53.332;9.860;2023-04-28T06:43:10;6.60;99.90
2523;DHT22;1272;53.332;9.860;2023-04-28T06:45:37;6.70;99.90
2523;DHT22;1272;53.332;9.860;2023-04-28T06:48:04;6.80;99.90
2523;DHT22;1272;53.332;9.860;2023-04-28T06:50:30;6.90;58.40
2523;DHT22;1272;53.332;9.860;2023-04-28T06:52:56;7.00;50.40
2523;DHT22;1272;53.332;9.860;2023-04-28T06:55:23;7.00;1.00
2523;DHT22;1272;53.332;9.860;2023-04-28T06:57:48;7.10;26.30
2523;DHT22;1272;53.332;9.860;2023-04-28T07:00:15;7.20;1.00
2523;DHT22;1272;53.332;9.860;2023-04-28T07:02:40;7.20;1.00
2523;DHT22;1272;53.332;9.860;2023-04-28T07:05:06;7.20;1.00
2523;DHT22;1272;53.332;9.860;2023-04-28T07:07:33;7.40;1.00
2523;DHT22;1272;53.332;9.860;2023-04-28T07:09:59;7.50;1.00
2523;DHT22;1272;53.332;9.860;2023-04-28T07:12:40;7.60;1.00
2523;DHT22;1272;53.332;9.860;2023-04-28T07:15:06;7.70;1.00
2523;DHT22;1272;53.332;9.860;2023-04-28T07:17:32;7.70;1.00
2523;DHT22;1272;53.332;9.860;2023-04-28T07:19:58;7.70;1.00
2523;DHT22;1272;53.332;9.860;2023-04-28T07:22:23;7.80;1.00
2523;DHT22;1272;53.332;9.860;2023-04-28T07:24:49;7.90;1.00
2523;DHT22;1272;53.332;9.860;2023-04-28T07:27:15;8.00;1.00
2523;DHT22;1272;53.332;9.860;2023-04-28T07:29:41;8.00;1.00
2523;DHT22;1272;53.332;9.860;2023-04-28T07:32:08;8.10;1.00
2523;DHT22;1272;53.332;9.860;2023-04-28T07:34:35;8.30;1.00
2523;DHT22;1272;53.332;9.860;2023-04-28T07:37:02;8.50;99.90
2523;DHT22;1272;53.332;9.860;2023-04-28T07:39:29;8.80;99.90
2523;DHT22;1272;53.332;9.860;2023-04-28T07:41:55;8.90;99.90
2523;DHT22;1272;53.332;9.860;2023-04-28T07:44:22;9.10;99.90
2523;DHT22;1272;53.332;9.860;2023-04-28T07:46:48;9.30;99.90
2523;DHT22;1272;53.332;9.860;2023-04-28T07:49:14;9.40;99.90
2523;DHT22;1272;53.332;9.860;2023-04-28T07:51:39;9.60;99.90
2523;DHT22;1272;53.332;9.860;2023-04-28T07:54:05;9.60;99.90
2523;DHT22;1272;53.332;9.860;2023-04-28T07:56:32;9.80;99.90
2523;DHT22;1272;53.332;9.860;2023-04-28T07:58:58;9.90;99.90
2523;DHT22;1272;53.332;9.860;2023-04-28T08:01:24;10.10;99.90
2523;DHT22;1272;53.332;9.860;2023-04-28T08:03:49;10.20;99.90
2523;DHT22;1272;53.332;9.860;2023-04-28T08:06:16;10.40;94.50
2523;DHT22;1272;53.332;9.860;2023-04-28T08:08:41;10.50;98.20
2523;DHT22;1272;53.332;9.860;2023-04-28T08:11:07;10.60;33.80
2523;DHT22;1272;53.332;9.860;2023-04-28T08:13:33;10.70;14.60
2523;DHT22;1272;53.332;9.860;2023-04-28T08:15:59;10.80;5.60
2523;DHT22;1272;53.332;9.860;2023-04-28T08:18:25;10.80;8.20
2523;DHT22;1272;53.332;9.860;2023-04-28T08:20:51;10.80;1.20
2523;DHT22;1272;53.332;9.860;2023-04-28T08:23:17;10.80;30.90
2523;DHT22;1272;53.332;9.860;2023-04-28T08:25:42;10.80;6.40
2523;DHT22;1272;53.332;9.860;2023-04-28T08:28:08;10.90;19.80
2523;DHT22;1272;53.332;9.860;2023-04-28T08:30:34;10.90;5.20
2523;DHT22;1272;53.332;9.860;2023-04-28T08:33:00;11.00;18.20
2523;DHT22;1272;53.332;9.860;2023-04-28T08:35:26;11.10;1.00
2523;DHT22;1272;53.332;9.860;2023-04-28T08:37:52;11.20;1.00
2523;DHT22;1272;53.332;9.860;2023-04-28T08:40:18;11.20;15.60
2523;DHT22;1272;53.332;9.860;2023-04-28T08:42:44;11.30;1.00
2523;DHT22;1272;53.332;9.860;2023-04-28T08:45:13;11.50;1.00
2523;DHT22;1272;53.332;9.860;2023-04-28T08:47:43;11.60;1.00
2523;DHT22;1272;53.332;9.860;2023-04-28T08:50:13;11.70;1.00
2523;DHT22;1272;53.332;9.860;2023-04-28T08:52:41;11.80;1.00
2523;DHT22;1272;53.332;9.860;2023-04-28T08:55:09;11.90;1.00
2523;DHT22;1272;53.332;9.860;2023-04-28T08:57:43;12.10;1.00
2523;DHT22;1272;53.332;9.860;2023-04-28T09:00:12;12.20;1.00
2523;DHT22;1272;53.332;9.860;2023-04-28T09:02:38;12.20;1.00
2523;DHT22;1272;53.332;9.860;2023-04-28T09:05:07;12.20;1.00
2523;DHT22;1272;53.332;9.860;2023-04-28T09:07:33;12.30;1.00
2523;DHT22;1272;53.332;9.860;2023-04-28T09:10:18;12.30;1.00
2523;DHT22;1272;53.332;9.860;2023-04-28T09:12:44;12.40;1.00
2523;DHT22;1272;53.332;9.860;2023-04-28T09:17:57;12.50;1.00
2523;DHT22;1272;53.332;9.860;2023-04-28T09:20:28;12.60;1.00
2523;DHT22;1272;53.332;9.860;2023-04-28T09:22:55;12.70;1.00
2523;DHT22;1272;53.332;9.860;2023-04-28T09:25:22;12.70;1.00
2523;DHT22;1272;53.332;9.860;2023-04-28T09:27:51;12.80;1.00
2523;DHT22;1272;53.332;9.860;2023-04-28T09:30:39;12.90;1.00
2523;DHT22;1272;53.332;9.860;2023-04-28T09:33:05;13.00;1.00
2523;DHT22;1272;53.332;9.860;2023-04-28T09:35:42;13.10;1.00
2523;DHT22;1272;53.332;9.860;2023-04-28T09:38:10;13.30;1.00
2523;DHT22;1272;53.332;9.860;2023-04-28T09:40:58;13.50;1.00
2523;DHT22;1272;53.332;9.860;2023-04-28T09:43:32;13.60;1.00
2523;DHT22;1272;53.332;9.860;2023-04-28T09:45:59;13.60;1.00
2523;DHT22;1272;53.332;9.860;2023-04-28T09:48:27;13.50;1.00
2523;DHT22;1272;53.332;9.860;2023-04-28T09:51:05;13.40;1.00
2523;DHT22;1272;53.332;9.860;2023-04-28T09:53:32;13.30;1.00
2523;DHT22;1272;53.332;9.860;2023-04-28T09:56:01;13.30;1.00
2523;DHT22;1272;53.332;9.860;2023-04-28T09:58:28;13.40;1.00
2523;DHT22;1272;53.332;9.860;2023-04-28T10:00:56;13.40;1.00
2523;DHT22;1272;53.332;9.860;2023-04-28T10:03:25;13.40;1.00
2523;DHT22;1272;53.332;9.860;2023-04-28T10:05:51;13.50;1.00
2523;DHT22;1272;53.332;9.860;2023-04-28T10:08:21;13.60;1.00
2523;DHT22;1272;53.332;9.860;2023-04-28T10:10:48;13.60;1.00
2523;DHT22;1272;53.332;9.860;2023-04-28T10:13:18;13.50;1.00
2523;DHT22;1272;53.332;9.860;2023-04-28T10:15:45;13.70;1.00
2523;DHT22;1272;53.332;9.860;2023-04-28T10:18:11;13.70;1.00
2523;DHT22;1272;53.332;9.860;2023-04-28T10:20:48;13.60;1.00
2523;DHT22;1272;53.332;9.860;2023-04-28T10:23:40;13.60;1.00
2523;DHT22;1272;53.332;9.860;2023-04-28T10:26:12;13.60;1.00
2523;DHT22;1272;53.332;9.860;2023-04-28T10:28:46;13.70;1.00
2523;DHT22;1272;53.332;9.860;2023-04-28T10:31:17;13.80;1.00
2523;DHT22;1272;53.332;9.860;2023-04-28T10:33:45;13.80;1.00
2523;DHT22;1272;53.332;9.860;2023-04-28T10:36:50;13.90;1.00
2523;DHT22;1272;53.332;9.860;2023-04-28T10:39:19;13.90;1.00
2523;DHT22;1272;53.332;9.860;2023-04-28T10:41:46;14.00;1.00
2523;DHT22;1272;53.332;9.860;2023-04-28T10:47:11;14.00;1.00
2523;DHT22;1272;53.332;9.860;2023-04-28T10:50:03;14.00;1.00
2523;DHT22;1272;53.332;9.860;2023-04-28T10:55:29;14.20;1.00
2523;DHT22;1272;53.332;9.860;2023-04-28T11:00:49;14.30;1.00
2523;DHT22;1272;53.332;9.860;2023-04-28T11:06:21;14.40;1.00
2523;DHT22;1272;53.332;9.860;2023-04-28T11:08:54;14.50;1.00
2523;DHT22;1272;53.332;9.860;2023-04-28T11:11:25;14.60;1.00
2523;DHT22;1272;53.332;9.860;2023-04-28T11:13:52;14.60;1.00
2523;DHT22;1272;53.332;9.860;2023-04-28T11:16:20;14.70;1.00
2523;DHT22;1272;53.332;9.860;2023-04-28T11:18:50;14.90;1.00
2523;DHT22;1272;53.332;9.860;2023-04-28T11:21:17;15.00;1.00
2523;DHT22;1272;53.332;9.860;2023-04-28T11:23:44;15.20;1.00
2523;DHT22;1272;53.332;9.860;2023-04-28T11:26:10;15.40;1.00
2523;DHT22;1272;53.332;9.860;2023-04-28T11:28:48;15.50;1.00
2523;DHT22;1272;53.332;9.860;2023-04-28T11:31:17;15.70;1.00
2523;DHT22;1272;53.332;9.860;2023-04-28T11:34:00;15.50;1.00
2523;DHT22;1272;53.332;9.860;2023-04-28T11:38:58;15.50;1.00
2523;DHT22;1272;53.332;9.860;2023-04-28T11:41:24;15.60;1.00
2523;DHT22;1272;53.332;9.860;2023-04-28T11:43:51;15.50;1.00
2523;DHT22;1272;53.332;9.860;2023-04-28T11:46:18;15.50;1.00
2523;DHT22;1272;53.332;9.860;2023-04-28T11:48:45;15.40;1.00
2523;DHT22;1272;53.332;9.860;2023-04-28T11:51:33;15.30;1.00
2523;DHT22;1272;53.332;9.860;2023-04-28T11:54:00;15.40;1.00
2523;DHT22;1272;53.332;9.860;2023-04-28T11:56:27;15.30;1.00
2523;DHT22;1272;53.332;9.860;2023-04-28T11:59:29;15.40;1.00
2523;DHT22;1272;53.332;9.860;2023-04-28T12:02:06;15.40;1.00
2523;DHT22;1272;53.332;9.860;2023-04-28T12:04:33;15.30;1.00
2523;DHT22;1272;53.332;9.860;2023-04-28T12:09:36;15.30;1.00
2523;DHT22;1272;53.332;9.860;2023-04-28T12:12:04;15.30;1.00
2523;DHT22;1272;53.332;9.860;2023-04-28T12:14:31;15.20;1.00
2523;DHT22;1272;53.332;9.860;2023-04-28T12:17:00;15.30;1.00
2523;DHT22;1272;53.332;9.860;2023-04-28T12:19:29;15.30;1.00
2523;DHT22;1272;53.332;9.860;2023-04-28T12:22:03;15.30;1.00
2523;DHT22;1272;53.332;9.860;2023-04-28T12:24:30;15.40;1.00
2523;DHT22;1272;53.332;9.860;2023-04-28T12:27:22;15.40;1.00
2523;DHT22;1272;53.332;9.860;2023-04-28T12:29:49;15.40;1.00
2523;DHT22;1272;53.332;9.860;2023-04-28T12:32:16;15.50;1.00
2523;DHT22;1272;53.332;9.860;2023-04-28T12:34:44;15.50;1.00
2523;DHT22;1272;53.332;9.860;2023-04-28T12:37:10;15.60;1.00
2523;DHT22;1272;53.332;9.860;2023-04-28T12:39:39;15.70;1.00
2523;DHT22;1272;53.332;9.860;2023-04-28T12:42:05;15.70;1.00
2523;DHT22;1272;53.332;9.860;2023-04-28T12:44:35;15.60;1.00
2523;DHT22;1272;53.332;9.860;2023-04-28T12:47:06;15.60;1.00
2523;DHT22;1272;53.332;9.860;2023-04-28T12:49:34;15.50;1.00
2523;DHT22;1272;53.332;9.860;2023-04-28T12:52:00;15.40;1.00
2523;DHT22;1272;53.332;9.860;2023-04-28T12:54:26;15.30;1.00
2523;DHT22;1272;53.332;9.860;2023-04-28T12:56:52;15.30;1.00
2523;DHT22;1272;53.332;9.860;2023-04-28T12:59:19;15.20;1.00
2523;DHT22;1272;53.332;9.860;2023-04-28T13:01:46;15.20;1.00
2523;DHT22;1272;53.332;9.860;2023-04-28T13:04:12;15.10;1.00
2523;DHT22;1272;53.332;9.860;2023-04-28T13:06:38;15.10;1.00
2523;DHT22;1272;53.332;9.860;2023-04-28T13:09:14;15.20;1.00
2523;DHT22;1272;53.332;9.860;2023-04-28T13:11:41;15.10;1.00
2523;DHT22;1272;53.332;9.860;2023-04-28T13:14:07;14.90;1.00
2523;DHT22;1272;53.332;9.860;2023-04-28T13:16:36;14.90;1.00
2523;DHT22;1272;53.332;9.860;2023-04-28T13:19:03;14.90;1.00
2523;DHT22;1272;53.332;9.860;2023-04-28T13:21:33;14.80;1.00
2523;DHT22;1272;53.332;9.860;2023-04-28T13:23:59;14.80;1.00
2523;DHT22;1272;53.332;9.860;2023-04-28T13:26:25;14.70;1.00
2523;DHT22;1272;53.332;9.860;2023-04-28T13:28:51;14.70;1.00
2523;DHT22;1272;53.332;9.860;2023-04-28T13:31:17;14.70;1.00
2523;DHT22;1272;53.332;9.860;2023-04-28T13:33:43;14.70;1.00
2523;DHT22;1272;53.332;9.860;2023-04-28T13:36:09;14.80;1.00
2523;DHT22;1272;53.332;9.860;2023-04-28T13:38:35;14.90;1.00
2523;DHT22;1272;53.332;9.860;2023-04-28T13:41:01;14.90;1.00
2523;DHT22;1272;53.332;9.860;2023-04-28T13:43:26;14.90;1.00
2523;DHT22;1272;53.332;9.860;2023-04-28T13:45:52;14.90;1.00
2523;DHT22;1272;53.332;9.860;2023-04-28T13:48:18;15.10;1.00
2523;DHT22;1272;53.332;9.860;2023-04-28T13:50:44;15.20;1.00
2523;DHT22;1272;53.332;9.860;2023-04-28T13:53:10;15.30;1.00
2523;DHT22;1272;53.332;9.860;2023-04-28T13:55:36;15.20;1.00
2523;DHT22;1272;53.332;9.860;2023-04-28T13:58:02;15.20;1.00
2523;DHT22;1272;53.332;9.860;2023-04-28T14:00:33;15.20;1.00
2523;DHT22;1272;53.332;9.860;2023-04-28T14:02:59;15.10;1.00
2523;DHT22;1272;53.332;9.860;2023-04-28T14:05:26;15.10;1.00
2523;DHT22;1272;53.332;9.860;2023-04-28T14:07:55;15.10;1.00
2523;DHT22;1272;53.332;9.860;2023-04-28T14:10:21;15.10;1.00
2523;DHT22;1272;53.332;9.860;2023-04-28T14:12:47;15.00;1.00
2523;DHT22;1272;53.332;9.860;2023-04-28T14:15:13;15.00;1.00
2523;DHT22;1272;53.332;9.860;2023-04-28T14:17:41;14.90;1.00
2523;DHT22;1272;53.332;9.860;2023-04-28T14:20:07;14.90;1.00
2523;DHT22;1272;53.332;9.860;2023-04-28T14:22:37;14.80;1.00
2523;DHT22;1272;53.332;9.860;2023-04-28T14:25:03;14.80;1.00
2523;DHT22;1272;53.332;9.860;2023-04-28T14:27:28;14.90;1.00
2523;DHT22;1272;53.332;9.860;2023-04-28T14:29:54;14.80;1.00
2523;DHT22;1272;53.332;9.860;2023-04-28T14:32:20;14.80;1.00
2523;DHT22;1272;53.332;9.860;2023-04-28T14:34:49;14.80;1.00
2523;DHT22;1272;53.332;9.860;2023-04-28T14:37:16;14.80;1.00
2523;DHT22;1272;53.332;9.860;2023-04-28T14:39:42;14.70;1.00
2523;DHT22;1272;53.332;9.860;2023-04-28T14:42:08;14.70;1.00
2523;DHT22;1272;53.332;9.860;2023-04-28T14:44:34;14.60;1.00
2523;DHT22;1272;53.332;9.860;2023-04-28T14:47:01;14.60;1.00
2523;DHT22;1272;53.332;9.860;2023-04-28T14:49:27;14.50;1.00
2523;DHT22;1272;53.332;9.860;2023-04-28T14:51:53;14.40;1.00
2523;DHT22;1272;53.332;9.860;2023-04-28T14:54:19;14.50;1.00
2523;DHT22;1272;53.332;9.860;2023-04-28T14:56:47;14.40;1.00
2523;DHT22;1272;53.332;9.860;2023-04-28T14:59:13;14.40;1.00
2523;DHT22;1272;53.332;9.860;2023-04-28T15:01:39;14.40;1.00
2523;DHT22;1272;53.332;9.860;2023-04-28T15:04:05;14.50;1.00
2523;DHT22;1272;53.332;9.860;2023-04-28T15:06:31;14.40;1.00
2523;DHT22;1272;53.332;9.860;2023-04-28T15:08:58;14.30;1.00
2523;DHT22;1272;53.332;9.860;2023-04-28T15:11:23;14.30;1.00
2523;DHT22;1272;53.332;9.860;2023-04-28T15:13:49;14.20;1.00
2523;DHT22;1272;53.332;9.860;2023-04-28T15:16:15;14.10;1.00
2523;DHT22;1272;53.332;9.860;2023-04-28T15:18:40;14.10;1.00
2523;DHT22;1272;53.332;9.860;2023-04-28T15:21:06;14.10;1.00
2523;DHT22;1272;53.332;9.860;2023-04-28T15:23:33;14.10;1.00
2523;DHT22;1272;53.332;9.860;2023-04-28T15:25:58;14.10;1.00
2523;DHT22;1272;53.332;9.860;2023-04-28T15:28:25;14.00;1.00
2523;DHT22;1272;53.332;9.860;2023-04-28T15:30:52;13.90;1.00
2523;DHT22;1272;53.332;9.860;2023-04-28T15:33:17;13.80;1.00
2523;DHT22;1272;53.332;9.860;2023-04-28T15:35:43;13.90;1.00
2523;DHT22;1272;53.332;9.860;2023-04-28T15:38:09;13.80;1.00
2523;DHT22;1272;53.332;9.860;2023-04-28T15:40:38;13.80;1.00
2523;DHT22;1272;53.332;9.860;2023-04-28T15:43:05;13.90;1.00
2523;DHT22;1272;53.332;9.860;2023-04-28T15:45:32;13.80;1.00
2523;DHT22;1272;53.332;9.860;2023-04-28T15:47:59;13.80;1.00
2523;DHT22;1272;53.332;9.860;2023-04-28T15:50:26;13.70;2.50
2523;DHT22;1272;53.332;9.860;2023-04-28T15:52:52;13.70;71.30
2523;DHT22;1272;53.332;9.860;2023-04-28T15:55:20;13.60;99.90
2523;DHT22;1272;53.332;9.860;2023-04-28T15:57:47;13.40;99.90
2523;DHT22;1272;53.332;9.860;2023-04-28T16:00:13;13.30;1.00
2523;DHT22;1272;53.332;9.860;2023-04-28T16:02:40;13.30;1.00
2523;DHT22;1272;53.332;9.860;2023-04-28T16:05:10;13.20;1.00
2523;DHT22;1272;53.332;9.860;2023-04-28T16:07:35;13.10;1.00
2523;DHT22;1272;53.332;9.860;2023-04-28T16:10:13;13.10;1.00
2523;DHT22;1272;53.332;9.860;2023-04-28T16:12:39;13.00;15.80
2523;DHT22;1272;53.332;9.860;2023-04-28T16:15:08;13.00;99.90
2523;DHT22;1272;53.332;9.860;2023-04-28T16:17:34;12.90;1.00
2523;DHT22;1272;53.332;9.860;2023-04-28T16:20:05;12.80;1.00
2523;DHT22;1272;53.332;9.860;2023-04-28T16:22:31;12.60;1.00
2523;DHT22;1272;53.332;9.860;2023-04-28T16:24:57;12.50;99.90
2523;DHT22;1272;53.332;9.860;2023-04-28T16:27:25;12.50;99.90
2523;DHT22;1272;53.332;9.860;2023-04-28T16:29:51;12.30;1.00
2523;DHT22;1272;53.332;9.860;2023-04-28T16:32:17;12.20;1.00
2523;DHT22;1272;53.332;9.860;2023-04-28T16:34:42;12.20;99.90
2523;DHT22;1272;53.332;9.860;2023-04-28T16:37:08;12.20;99.90
2523;DHT22;1272;53.332;9.860;2023-04-28T16:39:35;12.10;99.90